sensor_id;sensor_type;location;lat;lon;timestamp;pressure;altitude;pressure_sealevel;temperature;humidity
66801;BME280;53703;50.326;19.122;2023-03-23T00:00:13;98217.33;;;18.42;44.68
66801;BME280;53703;50.326;19.122;2023-03-23T00:03:27;98212.36;;;18.35;44.84
66801;BME280;53703;50.326;19.122;2023-03-23T00:09:39;98207.89;;;18.44;44.40
66801;BME280;53703;50.326;19.122;2023-03-23T00:12:33;98206.80;;;18.37;44.65
66801;BME280;53703;50.326;19.122;2023-03-23T00:15:25;98206.71;;;18.29;44.79
66801;BME280;53703;50.326;19.122;2023-03-23T00:18:19;98209.91;;;18.35;44.43
66801;BME280;53703;50.326;19.122;2023-03-23T00:21:13;98209.02;;;18.33;44.52
66801;BME280;53703;50.326;19.122;2023-03-23T00:24:10;98211.44;;;18.28;44.44
66801;BME280;53703;50.326;19.122;2023-03-23T00:27:03;98210.48;;;18.40;44.15
66801;BME280;53703;50.326;19.122;2023-03-23T00:29:56;98207.66;;;18.40;44.32
66801;BME280;53703;50.326;19.122;2023-03-23T00:32:51;98206.90;;;18.39;44.15
66801;BME280;53703;50.326;19.122;2023-03-23T00:35:44;98207.50;;;18.37;44.29
66801;BME280;53703;50.326;19.122;2023-03-23T00:38:37;98205.73;;;18.43;44.34
66801;BME280;53703;50.326;19.122;2023-03-23T00:41:32;98206.34;;;18.38;44.01
66801;BME280;53703;50.326;19.122;2023-03-23T00:44:31;98205.82;;;18.40;44.21
66801;BME280;53703;50.326;19.122;2023-03-23T00:47:26;98204.45;;;18.38;44.01
66801;BME280;53703;50.326;19.122;2023-03-23T00:50:19;98204.13;;;18.37;44.06
66801;BME280;53703;50.326;19.122;2023-03-23T00:53:12;98199.95;;;18.39;44.12
66801;BME280;53703;50.326;19.122;2023-03-23T00:56:06;98200.45;;;18.43;44.10
66801;BME280;53703;50.326;19.122;2023-03-23T00:58:59;98197.52;;;18.39;43.81
66801;BME280;53703;50.326;19.122;2023-03-23T01:01:52;98194.18;;;18.42;43.90
66801;BME280;53703;50.326;19.122;2023-03-23T01:04:45;98188.14;;;18.35;43.98
66801;BME280;53703;50.326;19.122;2023-03-23T01:07:43;98184.90;;;18.35;43.96
66801;BME280;53703;50.326;19.122;2023-03-23T01:10:36;98182.95;;;18.41;43.94
66801;BME280;53703;50.326;19.122;2023-03-23T01:13:30;98180.94;;;18.39;43.99
66801;BME280;53703;50.326;19.122;2023-03-23T01:16:23;98180.70;;;18.34;43.84
66801;BME280;53703;50.326;19.122;2023-03-23T01:19:16;98179.44;;;18.35;43.84
66801;BME280;53703;50.326;19.122;2023-03-23T01:22:08;98178.89;;;18.35;43.74
66801;BME280;53703;50.326;19.122;2023-03-23T01:25:01;98176.61;;;18.39;43.80
66801;BME280;53703;50.326;19.122;2023-03-23T01:27:54;98174.73;;;18.39;43.53
66801;BME280;53703;50.326;19.122;2023-03-23T01:30:47;98178.39;;;18.30;43.73
66801;BME280;53703;50.326;19.122;2023-03-23T01:33:40;98179.82;;;18.38;43.76
66801;BME280;53703;50.326;19.122;2023-03-23T01:36:33;98175.96;;;18.30;43.73
66801;BME280;53703;50.326;19.122;2023-03-23T01:39:27;98175.66;;;18.39;43.76
66801;BME280;53703;50.326;19.122;2023-03-23T01:42:21;98176.10;;;18.38;43.52
66801;BME280;53703;50.326;19.122;2023-03-23T01:45:32;98177.16;;;18.43;43.51
66801;BME280;53703;50.326;19.122;2023-03-23T01:48:29;98176.90;;;18.42;43.47
66801;BME280;53703;50.326;19.122;2023-03-23T01:51:24;98174.60;;;18.41;43.49
66801;BME280;53703;50.326;19.122;2023-03-23T01:54:20;98172.60;;;18.37;43.63
66801;BME280;53703;50.326;19.122;2023-03-23T01:57:16;98170.13;;;18.35;43.48
66801;BME280;53703;50.326;19.122;2023-03-23T02:00:14;98168.09;;;18.35;43.69
66801;BME280;53703;50.326;19.122;2023-03-23T02:03:08;98165.60;;;18.41;43.29
66801;BME280;53703;50.326;19.122;2023-03-23T02:06:05;98163.16;;;18.38;43.31
66801;BME280;53703;50.326;19.122;2023-03-23T02:08:58;98157.94;;;18.41;43.15
66801;BME280;53703;50.326;19.122;2023-03-23T02:11:54;98150.14;;;18.33;43.18
66801;BME280;53703;50.326;19.122;2023-03-23T02:14:47;98150.88;;;18.39;43.19
66801;BME280;53703;50.326;19.122;2023-03-23T02:17:51;98149.19;;;18.33;43.33
66801;BME280;53703;50.326;19.122;2023-03-23T02:21:07;98151.52;;;18.31;43.30
66801;BME280;53703;50.326;19.122;2023-03-23T02:31:34;98148.20;;;18.30;43.25
66801;BME280;53703;50.326;19.122;2023-03-23T02:34:33;98143.34;;;18.29;43.38
66801;BME280;53703;50.326;19.122;2023-03-23T02:37:33;98144.17;;;18.35;43.48
66801;BME280;53703;50.326;19.122;2023-03-23T02:40:32;98142.48;;;18.38;43.29
66801;BME280;53703;50.326;19.122;2023-03-23T02:43:32;98141.70;;;18.35;43.51
66801;BME280;53703;50.326;19.122;2023-03-23T02:46:28;98137.65;;;18.33;43.33
66801;BME280;53703;50.326;19.122;2023-03-23T02:49:23;98133.16;;;18.37;43.21
66801;BME280;53703;50.326;19.122;2023-03-23T02:52:23;98130.02;;;18.38;43.26
66801;BME280;53703;50.326;19.122;2023-03-23T02:55:19;98130.70;;;18.40;43.11
66801;BME280;53703;50.326;19.122;2023-03-23T02:58:16;98128.79;;;18.40;43.13
66801;BME280;53703;50.326;19.122;2023-03-23T03:05:04;98137.54;;;18.34;43.20
66801;BME280;53703;50.326;19.122;2023-03-23T03:08:11;98136.13;;;18.31;43.12
66801;BME280;53703;50.326;19.122;2023-03-23T03:11:08;98135.27;;;18.37;43.18
66801;BME280;53703;50.326;19.122;2023-03-23T03:14:04;98125.05;;;18.38;43.05
66801;BME280;53703;50.326;19.122;2023-03-23T03:17:02;98124.77;;;18.36;42.94
66801;BME280;53703;50.326;19.122;2023-03-23T03:19:59;98114.39;;;18.33;43.13
66801;BME280;53703;50.326;19.122;2023-03-23T03:22:54;98116.69;;;18.35;43.19
66801;BME280;53703;50.326;19.122;2023-03-23T03:25:49;98109.19;;;18.30;43.20
66801;BME280;53703;50.326;19.122;2023-03-23T03:28:45;98108.58;;;18.35;43.35
66801;BME280;53703;50.326;19.122;2023-03-23T03:31:42;98102.41;;;18.31;43.29
66801;BME280;53703;50.326;19.122;2023-03-23T03:34:37;98101.62;;;18.30;43.08
66801;BME280;53703;50.326;19.122;2023-03-23T03:37:34;98105.59;;;18.32;43.26
66801;BME280;53703;50.326;19.122;2023-03-23T03:40:30;98110.29;;;18.29;43.08
66801;BME280;53703;50.326;19.122;2023-03-23T03:43:22;98108.16;;;18.30;42.98
66801;BME280;53703;50.326;19.122;2023-03-23T03:46:15;98117.37;;;18.24;42.97
66801;BME280;53703;50.326;19.122;2023-03-23T03:49:10;98111.52;;;18.29;43.00
66801;BME280;53703;50.326;19.122;2023-03-23T03:52:04;98110.64;;;18.28;43.06
66801;BME280;53703;50.326;19.122;2023-03-23T03:54:57;98116.87;;;18.27;43.03
66801;BME280;53703;50.326;19.122;2023-03-23T03:57:49;98121.63;;;18.28;42.92
66801;BME280;53703;50.326;19.122;2023-03-23T04:00:42;98118.01;;;18.25;42.96
66801;BME280;53703;50.326;19.122;2023-03-23T04:03:39;98131.65;;;18.24;42.92
66801;BME280;53703;50.326;19.122;2023-03-23T04:06:32;98130.13;;;18.23;43.06
66801;BME280;53703;50.326;19.122;2023-03-23T04:09:28;98122.81;;;18.20;43.05
66801;BME280;53703;50.326;19.122;2023-03-23T04:12:23;98119.22;;;18.18;42.97
66801;BME280;53703;50.326;19.122;2023-03-23T04:15:17;98118.71;;;18.17;42.96
66801;BME280;53703;50.326;19.122;2023-03-23T04:18:10;98120.94;;;18.22;42.81
66801;BME280;53703;50.326;19.122;2023-03-23T04:21:04;98116.90;;;18.16;43.09
66801;BME280;53703;50.326;19.122;2023-03-23T04:23:58;98122.15;;;18.19;43.20
66801;BME280;53703;50.326;19.122;2023-03-23T04:26:53;98118.59;;;18.22;43.15
66801;BME280;53703;50.326;19.122;2023-03-23T04:29:47;98112.59;;;18.10;43.02
66801;BME280;53703;50.326;19.122;2023-03-23T04:32:41;98112.45;;;18.04;43.48
66801;BME280;53703;50.326;19.122;2023-03-23T04:35:34;98109.86;;;17.97;43.46
66801;BME280;53703;50.326;19.122;2023-03-23T04:38:27;98111.21;;;18.12;43.18
66801;BME280;53703;50.326;19.122;2023-03-23T04:41:20;98114.27;;;18.15;43.02
66801;BME280;53703;50.326;19.122;2023-03-23T04:44:13;98115.40;;;18.17;43.04
66801;BME280;53703;50.326;19.122;2023-03-23T04:47:08;98113.98;;;18.13;43.12
66801;BME280;53703;50.326;19.122;2023-03-23T04:50:02;98113.22;;;18.15;43.13
66801;BME280;53703;50.326;19.122;2023-03-23T04:52:55;98112.52;;;18.15;43.10
66801;BME280;53703;50.326;19.122;2023-03-23T04:55:49;98114.66;;;18.11;43.12
66801;BME280;53703;50.326;19.122;2023-03-23T04:58:42;98115.84;;;18.07;43.18
66801;BME280;53703;50.326;19.122;2023-03-23T05:01:36;98117.73;;;18.11;43.11
66801;BME280;53703;50.326;19.122;2023-03-23T05:04:30;98113.89;;;18.12;43.20
66801;BME280;53703;50.326;19.122;2023-03-23T05:07:22;98114.99;;;18.12;42.97
66801;BME280;53703;50.326;19.122;2023-03-23T05:10:16;98114.37;;;18.08;42.96
66801;BME280;53703;50.326;19.122;2023-03-23T05:13:09;98109.23;;;18.05;42.98
66801;BME280;53703;50.326;19.122;2023-03-23T05:16:06;98111.81;;;18.04;42.90
66801;BME280;53703;50.326;19.122;2023-03-23T05:18:57;98115.57;;;18.03;43.03
66801;BME280;53703;50.326;19.122;2023-03-23T05:21:50;98112.70;;;18.05;42.96
66801;BME280;53703;50.326;19.122;2023-03-23T05:24:45;98110.88;;;18.05;43.00
66801;BME280;53703;50.326;19.122;2023-03-23T05:27:38;98108.30;;;18.02;43.00
66801;BME280;53703;50.326;19.122;2023-03-23T05:30:51;98112.95;;;18.01;43.03
66801;BME280;53703;50.326;19.122;2023-03-23T05:33:43;98111.39;;;18.03;42.90
66801;BME280;53703;50.326;19.122;2023-03-23T05:36:36;98109.06;;;18.01;43.03
66801;BME280;53703;50.326;19.122;2023-03-23T05:39:30;98114.61;;;18.02;43.03
66801;BME280;53703;50.326;19.122;2023-03-23T05:42:09;98117.14;;;18.02;43.03
66801;BME280;53703;50.326;19.122;2023-03-23T05:45:02;98118.23;;;18.02;43.02
66801;BME280;53703;50.326;19.122;2023-03-23T05:47:54;98115.15;;;18.01;43.11
66801;BME280;53703;50.326;19.122;2023-03-23T05:51:07;98110.27;;;17.97;43.20
66801;BME280;53703;50.326;19.122;2023-03-23T05:54:01;98112.36;;;17.97;43.30
66801;BME280;53703;50.326;19.122;2023-03-23T05:56:54;98109.45;;;17.93;43.43
66801;BME280;53703;50.326;19.122;2023-03-23T05:59:47;98107.81;;;17.83;43.74
66801;BME280;53703;50.326;19.122;2023-03-23T06:02:40;98109.91;;;17.92;43.67
66801;BME280;53703;50.326;19.122;2023-03-23T06:05:35;98110.75;;;17.91;43.73
66801;BME280;53703;50.326;19.122;2023-03-23T06:08:28;98116.58;;;17.83;43.94
66801;BME280;53703;50.326;19.122;2023-03-23T06:11:21;98112.17;;;17.84;43.95
66801;BME280;53703;50.326;19.122;2023-03-23T06:14:14;98108.65;;;17.56;44.54
66801;BME280;53703;50.326;19.122;2023-03-23T06:17:08;98108.83;;;17.57;45.02
66801;BME280;53703;50.326;19.122;2023-03-23T06:20:02;98111.89;;;17.93;44.00
66801;BME280;53703;50.326;19.122;2023-03-23T06:23:01;98105.33;;;18.03;43.64
66801;BME280;53703;50.326;19.122;2023-03-23T06:25:57;98099.86;;;17.95;43.79
66801;BME280;53703;50.326;19.122;2023-03-23T06:28:50;98103.05;;;18.00;43.75
66801;BME280;53703;50.326;19.122;2023-03-23T06:31:29;98100.51;;;17.96;43.95
66801;BME280;53703;50.326;19.122;2023-03-23T06:34:23;98104.94;;;17.92;43.95
66801;BME280;53703;50.326;19.122;2023-03-23T06:37:15;98104.77;;;17.92;44.02
66801;BME280;53703;50.326;19.122;2023-03-23T06:40:11;98104.04;;;17.95;43.96
66801;BME280;53703;50.326;19.122;2023-03-23T06:43:04;98109.02;;;17.95;43.90
66801;BME280;53703;50.326;19.122;2023-03-23T06:45:59;98106.33;;;17.94;43.90
66801;BME280;53703;50.326;19.122;2023-03-23T06:48:52;98109.27;;;17.92;44.12
66801;BME280;53703;50.326;19.122;2023-03-23T06:51:45;98108.92;;;17.90;44.05
66801;BME280;53703;50.326;19.122;2023-03-23T06:54:38;98112.32;;;17.94;44.01
66801;BME280;53703;50.326;19.122;2023-03-23T06:57:31;98113.75;;;17.95;44.02
66801;BME280;53703;50.326;19.122;2023-03-23T07:00:24;98120.61;;;17.99;44.03
66801;BME280;53703;50.326;19.122;2023-03-23T07:03:03;98117.91;;;17.94;44.02
66801;BME280;53703;50.326;19.122;2023-03-23T07:05:56;98114.60;;;17.91;44.14
66801;BME280;53703;50.326;19.122;2023-03-23T07:08:50;98119.77;;;17.96;44.02
66801;BME280;53703;50.326;19.122;2023-03-23T07:11:43;98124.40;;;17.95;44.05
66801;BME280;53703;50.326;19.122;2023-03-23T07:14:38;98122.55;;;17.53;44.95
66801;BME280;53703;50.326;19.122;2023-03-23T07:17:32;98117.59;;;17.97;44.34
66801;BME280;53703;50.326;19.122;2023-03-23T07:20:25;98117.05;;;17.98;44.10
66801;BME280;53703;50.326;19.122;2023-03-23T07:23:18;98121.70;;;17.94;44.19
66801;BME280;53703;50.326;19.122;2023-03-23T07:26:11;98130.21;;;17.83;44.37
66801;BME280;53703;50.326;19.122;2023-03-23T07:29:04;98124.27;;;17.85;44.31
66801;BME280;53703;50.326;19.122;2023-03-23T07:31:57;98122.04;;;17.81;44.33
66801;BME280;53703;50.326;19.122;2023-03-23T07:34:50;98122.96;;;17.47;44.26
66801;BME280;53703;50.326;19.122;2023-03-23T07:37:43;98132.36;;;16.90;44.65
66801;BME280;53703;50.326;19.122;2023-03-23T07:40:28;98132.27;;;16.74;45.15
66801;BME280;53703;50.326;19.122;2023-03-23T07:43:24;98134.71;;;17.17;45.11
66801;BME280;53703;50.326;19.122;2023-03-23T07:46:18;98142.89;;;17.26;45.00
66801;BME280;53703;50.326;19.122;2023-03-23T07:49:11;98138.60;;;17.52;44.06
66801;BME280;53703;50.326;19.122;2023-03-23T07:52:04;98139.78;;;17.88;43.58
66801;BME280;53703;50.326;19.122;2023-03-23T07:54:57;98143.92;;;17.54;46.50
66801;BME280;53703;50.326;19.122;2023-03-23T07:57:50;98137.14;;;17.78;45.25
66801;BME280;53703;50.326;19.122;2023-03-23T08:00:44;98138.98;;;17.98;44.42
66801;BME280;53703;50.326;19.122;2023-03-23T08:03:37;98132.01;;;18.00;44.81
66801;BME280;53703;50.326;19.122;2023-03-23T08:06:33;98136.30;;;17.44;44.52
66801;BME280;53703;50.326;19.122;2023-03-23T08:09:26;98134.34;;;16.96;44.92
66801;BME280;53703;50.326;19.122;2023-03-23T08:12:19;98131.31;;;17.20;45.11
66801;BME280;53703;50.326;19.122;2023-03-23T08:15:14;98129.33;;;17.86;44.03
66801;BME280;53703;50.326;19.122;2023-03-23T08:18:08;98128.16;;;18.08;44.20
66801;BME280;53703;50.326;19.122;2023-03-23T08:21:00;98130.66;;;18.14;45.27
66801;BME280;53703;50.326;19.122;2023-03-23T08:23:56;98130.41;;;18.14;46.24
66801;BME280;53703;50.326;19.122;2023-03-23T08:26:49;98127.94;;;18.13;46.93
66801;BME280;53703;50.326;19.122;2023-03-23T08:29:41;98125.86;;;18.15;46.94
66801;BME280;53703;50.326;19.122;2023-03-23T08:32:37;98125.00;;;18.12;47.39
66801;BME280;53703;50.326;19.122;2023-03-23T08:35:30;98120.67;;;18.20;46.73
66801;BME280;53703;50.326;19.122;2023-03-23T08:38:24;98120.20;;;18.20;46.64
66801;BME280;53703;50.326;19.122;2023-03-23T08:41:18;98121.25;;;18.25;46.04
66801;BME280;53703;50.326;19.122;2023-03-23T08:44:12;98120.31;;;18.42;44.75
66801;BME280;53703;50.326;19.122;2023-03-23T08:47:07;98122.25;;;18.41;43.54
66801;BME280;53703;50.326;19.122;2023-03-23T08:50:02;98116.85;;;18.48;43.09
66801;BME280;53703;50.326;19.122;2023-03-23T08:52:55;98121.06;;;18.53;42.58
66801;BME280;53703;50.326;19.122;2023-03-23T08:55:50;98122.84;;;18.47;41.84
66801;BME280;53703;50.326;19.122;2023-03-23T08:58:42;98118.94;;;18.44;41.61
66801;BME280;53703;50.326;19.122;2023-03-23T09:01:35;98109.70;;;18.49;41.36
66801;BME280;53703;50.326;19.122;2023-03-23T09:04:23;98112.94;;;18.31;41.96
66801;BME280;53703;50.326;19.122;2023-03-23T09:07:16;98111.85;;;18.32;41.75
66801;BME280;53703;50.326;19.122;2023-03-23T09:10:11;98111.86;;;18.38;41.32
66801;BME280;53703;50.326;19.122;2023-03-23T09:13:04;98107.04;;;18.42;41.18
66801;BME280;53703;50.326;19.122;2023-03-23T09:15:57;98108.83;;;18.36;41.17
66801;BME280;53703;50.326;19.122;2023-03-23T09:18:55;98111.19;;;18.35;41.44
66801;BME280;53703;50.326;19.122;2023-03-23T09:21:49;98108.24;;;18.47;41.53
66801;BME280;53703;50.326;19.122;2023-03-23T09:24:42;98103.45;;;18.52;41.42
66801;BME280;53703;50.326;19.122;2023-03-23T09:27:35;98099.16;;;18.43;41.06
66801;BME280;53703;50.326;19.122;2023-03-23T09:30:32;98099.45;;;18.41;41.08
66801;BME280;53703;50.326;19.122;2023-03-23T09:33:28;98100.73;;;18.46;41.09
66801;BME280;53703;50.326;19.122;2023-03-23T09:36:25;98098.23;;;18.52;41.27
66801;BME280;53703;50.326;19.122;2023-03-23T09:39:20;98098.41;;;18.45;41.40
66801;BME280;53703;50.326;19.122;2023-03-23T09:42:31;98105.20;;;18.44;41.31
66801;BME280;53703;50.326;19.122;2023-03-23T09:45:36;98104.87;;;18.44;41.82
66801;BME280;53703;50.326;19.122;2023-03-23T09:48:43;98109.11;;;18.46;42.26
66801;BME280;53703;50.326;19.122;2023-03-23T09:51:45;98112.13;;;18.52;41.47
66801;BME280;53703;50.326;19.122;2023-03-23T09:54:41;98111.27;;;18.44;42.33
66801;BME280;53703;50.326;19.122;2023-03-23T09:57:40;98102.86;;;18.50;41.14
66801;BME280;53703;50.326;19.122;2023-03-23T10:00:39;98112.66;;;18.56;41.46
66801;BME280;53703;50.326;19.122;2023-03-23T10:03:39;98094.10;;;18.51;40.28
66801;BME280;53703;50.326;19.122;2023-03-23T10:06:33;98088.80;;;18.54;40.42
66801;BME280;53703;50.326;19.122;2023-03-23T10:09:28;98078.34;;;18.39;41.95
66801;BME280;53703;50.326;19.122;2023-03-23T10:12:29;98079.89;;;18.38;42.20
66801;BME280;53703;50.326;19.122;2023-03-23T10:15:27;98081.77;;;18.54;41.92
66801;BME280;53703;50.326;19.122;2023-03-23T10:18:29;98077.39;;;18.56;41.60
66801;BME280;53703;50.326;19.122;2023-03-23T10:21:24;98071.92;;;18.51;41.94
66801;BME280;53703;50.326;19.122;2023-03-23T10:24:20;98067.39;;;18.67;40.81
66801;BME280;53703;50.326;19.122;2023-03-23T10:27:26;98059.17;;;18.63;40.90
66801;BME280;53703;50.326;19.122;2023-03-23T10:30:29;98054.70;;;18.64;40.94
66801;BME280;53703;50.326;19.122;2023-03-23T10:33:26;98049.39;;;18.63;41.09
66801;BME280;53703;50.326;19.122;2023-03-23T10:36:24;98052.73;;;18.59;40.99
66801;BME280;53703;50.326;19.122;2023-03-23T10:39:23;98040.30;;;18.76;39.84
66801;BME280;53703;50.326;19.122;2023-03-23T10:42:25;98041.98;;;18.59;40.20
66801;BME280;53703;50.326;19.122;2023-03-23T10:45:21;98041.64;;;18.66;40.45
66801;BME280;53703;50.326;19.122;2023-03-23T10:48:20;98034.48;;;18.68;39.95
66801;BME280;53703;50.326;19.122;2023-03-23T10:51:18;98048.96;;;18.43;41.43
66801;BME280;53703;50.326;19.122;2023-03-23T10:54:12;98054.30;;;18.41;41.35
66801;BME280;53703;50.326;19.122;2023-03-23T10:57:27;98055.91;;;18.43;41.83
66801;BME280;53703;50.326;19.122;2023-03-23T11:00:25;98061.92;;;18.26;42.38
66801;BME280;53703;50.326;19.122;2023-03-23T11:03:33;98067.44;;;18.09;42.69
66801;BME280;53703;50.326;19.122;2023-03-23T11:06:20;98069.42;;;18.14;42.53
66801;BME280;53703;50.326;19.122;2023-03-23T11:09:16;98070.33;;;18.20;42.42
66801;BME280;53703;50.326;19.122;2023-03-23T11:12:19;98075.44;;;18.31;42.38
66801;BME280;53703;50.326;19.122;2023-03-23T11:15:28;98078.02;;;18.30;42.39
66801;BME280;53703;50.326;19.122;2023-03-23T11:18:26;98077.05;;;18.33;42.34
66801;BME280;53703;50.326;19.122;2023-03-23T11:21:21;98076.45;;;18.40;42.29
66801;BME280;53703;50.326;19.122;2023-03-23T11:24:15;98077.01;;;18.27;42.47
66801;BME280;53703;50.326;19.122;2023-03-23T11:27:10;98080.79;;;18.22;42.38
66801;BME280;53703;50.326;19.122;2023-03-23T11:30:11;98074.17;;;18.07;42.58
66801;BME280;53703;50.326;19.122;2023-03-23T11:33:12;98070.08;;;18.19;42.96
66801;BME280;53703;50.326;19.122;2023-03-23T11:36:09;98070.14;;;18.26;42.46
66801;BME280;53703;50.326;19.122;2023-03-23T11:39:20;98069.46;;;18.25;42.29
66801;BME280;53703;50.326;19.122;2023-03-23T11:42:21;98073.64;;;18.23;42.33
66801;BME280;53703;50.326;19.122;2023-03-23T11:45:21;98070.40;;;18.28;41.96
66801;BME280;53703;50.326;19.122;2023-03-23T11:48:15;98071.65;;;18.15;42.56
66801;BME280;53703;50.326;19.122;2023-03-23T11:51:16;98077.52;;;18.08;42.63
66801;BME280;53703;50.326;19.122;2023-03-23T11:54:16;98074.79;;;18.26;42.38
66801;BME280;53703;50.326;19.122;2023-03-23T11:57:13;98073.16;;;18.16;42.82
66801;BME280;53703;50.326;19.122;2023-03-23T12:00:16;98074.90;;;17.97;43.15
66801;BME280;53703;50.326;19.122;2023-03-23T12:03:36;98072.11;;;18.14;42.29
66801;BME280;53703;50.326;19.122;2023-03-23T12:06:41;98062.37;;;18.12;42.30
66801;BME280;53703;50.326;19.122;2023-03-23T12:09:49;98064.98;;;18.20;42.13
66801;BME280;53703;50.326;19.122;2023-03-23T12:12:50;98061.71;;;18.15;42.00
66801;BME280;53703;50.326;19.122;2023-03-23T12:15:54;98066.59;;;18.06;42.32
66801;BME280;53703;50.326;19.122;2023-03-23T12:18:58;98061.54;;;18.05;42.28
66801;BME280;53703;50.326;19.122;2023-03-23T12:22:05;98057.48;;;17.98;42.54
66801;BME280;53703;50.326;19.122;2023-03-23T12:25:43;98062.61;;;18.05;42.36
66801;BME280;53703;50.326;19.122;2023-03-23T12:28:56;98060.21;;;18.15;42.83
66801;BME280;53703;50.326;19.122;2023-03-23T12:32:13;98053.29;;;18.19;42.11
66801;BME280;53703;50.326;19.122;2023-03-23T12:35:25;98052.59;;;18.16;42.48
66801;BME280;53703;50.326;19.122;2023-03-23T12:38:47;98051.35;;;18.26;42.75
66801;BME280;53703;50.326;19.122;2023-03-23T12:41:51;98056.27;;;18.31;43.00
66801;BME280;53703;50.326;19.122;2023-03-23T12:44:48;98050.81;;;18.23;42.60
66801;BME280;53703;50.326;19.122;2023-03-23T12:47:47;98052.77;;;18.26;42.98
66801;BME280;53703;50.326;19.122;2023-03-23T12:50:45;98053.13;;;18.16;43.54
66801;BME280;53703;50.326;19.122;2023-03-23T12:54:07;98057.64;;;18.21;43.72
66801;BME280;53703;50.326;19.122;2023-03-23T12:57:11;98056.54;;;18.21;43.32
66801;BME280;53703;50.326;19.122;2023-03-23T13:00:16;98056.34;;;18.23;43.82
66801;BME280;53703;50.326;19.122;2023-03-23T13:03:30;98056.85;;;18.30;43.37
66801;BME280;53703;50.326;19.122;2023-03-23T13:06:31;98060.52;;;18.27;43.85
66801;BME280;53703;50.326;19.122;2023-03-23T13:09:28;98059.86;;;18.25;43.43
66801;BME280;53703;50.326;19.122;2023-03-23T13:12:28;98061.61;;;18.31;43.44
66801;BME280;53703;50.326;19.122;2023-03-23T13:15:31;98055.21;;;18.17;43.29
66801;BME280;53703;50.326;19.122;2023-03-23T13:18:37;98047.83;;;18.23;43.01
66801;BME280;53703;50.326;19.122;2023-03-23T13:21:32;98048.27;;;18.17;43.19
66801;BME280;53703;50.326;19.122;2023-03-23T13:24:29;98041.73;;;18.14;43.34
66801;BME280;53703;50.326;19.122;2023-03-23T13:27:26;98048.21;;;18.19;43.34
66801;BME280;53703;50.326;19.122;2023-03-23T13:30:22;98043.61;;;18.17;43.38
66801;BME280;53703;50.326;19.122;2023-03-23T13:33:16;98040.59;;;18.12;43.48
66801;BME280;53703;50.326;19.122;2023-03-23T13:36:14;98042.64;;;18.20;43.38
66801;BME280;53703;50.326;19.122;2023-03-23T13:39:23;98028.34;;;18.28;43.18
66801;BME280;53703;50.326;19.122;2023-03-23T13:42:24;98021.45;;;18.27;42.91
66801;BME280;53703;50.326;19.122;2023-03-23T13:45:36;98028.55;;;18.27;42.80
66801;BME280;53703;50.326;19.122;2023-03-23T13:48:44;98023.97;;;18.22;43.03
66801;BME280;53703;50.326;19.122;2023-03-23T13:51:58;98023.84;;;18.24;43.16
66801;BME280;53703;50.326;19.122;2023-03-23T13:55:08;98026.20;;;18.23;42.88
66801;BME280;53703;50.326;19.122;2023-03-23T13:58:24;98020.83;;;18.32;43.00
66801;BME280;53703;50.326;19.122;2023-03-23T14:01:18;98015.05;;;18.30;42.55
66801;BME280;53703;50.326;19.122;2023-03-23T14:04:15;98016.17;;;18.23;42.79
66801;BME280;53703;50.326;19.122;2023-03-23T14:06:52;98017.98;;;18.18;43.12
66801;BME280;53703;50.326;19.122;2023-03-23T14:09:45;98014.02;;;18.21;42.93
66801;BME280;53703;50.326;19.122;2023-03-23T14:12:39;98016.96;;;18.18;42.99
66801;BME280;53703;50.326;19.122;2023-03-23T14:15:43;98019.02;;;18.15;43.43
66801;BME280;53703;50.326;19.122;2023-03-23T14:18:49;98015.17;;;18.20;43.05
66801;BME280;53703;50.326;19.122;2023-03-23T14:21:57;98020.05;;;18.24;42.87
66801;BME280;53703;50.326;19.122;2023-03-23T14:24:52;98023.52;;;18.15;43.27
66801;BME280;53703;50.326;19.122;2023-03-23T14:27:46;98025.41;;;18.23;42.85
66801;BME280;53703;50.326;19.122;2023-03-23T14:30:39;98022.25;;;18.18;43.15
66801;BME280;53703;50.326;19.122;2023-03-23T14:33:32;98019.36;;;18.20;43.09
66801;BME280;53703;50.326;19.122;2023-03-23T14:36:28;98016.62;;;18.12;43.25
66801;BME280;53703;50.326;19.122;2023-03-23T14:39:25;98010.33;;;18.09;43.37
66801;BME280;53703;50.326;19.122;2023-03-23T14:42:23;98015.34;;;18.21;43.25
66801;BME280;53703;50.326;19.122;2023-03-23T14:45:21;98015.64;;;18.15;43.74
66801;BME280;53703;50.326;19.122;2023-03-23T14:48:16;98012.92;;;18.31;43.19
66801;BME280;53703;50.326;19.122;2023-03-23T14:51:18;98010.63;;;18.17;43.16
66801;BME280;53703;50.326;19.122;2023-03-23T14:54:12;98009.69;;;18.35;43.41
66801;BME280;53703;50.326;19.122;2023-03-23T14:57:13;98011.07;;;18.20;43.32
66801;BME280;53703;50.326;19.122;2023-03-23T15:00:15;98010.91;;;18.11;43.34
66801;BME280;53703;50.326;19.122;2023-03-23T15:03:12;98008.62;;;18.07;43.79
66801;BME280;53703;50.326;19.122;2023-03-23T15:06:13;98011.83;;;18.14;43.61
66801;BME280;53703;50.326;19.122;2023-03-23T15:09:13;98008.38;;;18.11;43.97
66801;BME280;53703;50.326;19.122;2023-03-23T15:12:07;98010.83;;;18.03;44.52
66801;BME280;53703;50.326;19.122;2023-03-23T15:15:16;98011.12;;;18.10;44.20
66801;BME280;53703;50.326;19.122;2023-03-23T15:18:36;98012.60;;;18.01;44.69
66801;BME280;53703;50.326;19.122;2023-03-23T15:21:32;98011.33;;;18.01;44.06
66801;BME280;53703;50.326;19.122;2023-03-23T15:24:34;98012.08;;;17.99;44.09
66801;BME280;53703;50.326;19.122;2023-03-23T15:27:31;98007.33;;;17.98;44.02
66801;BME280;53703;50.326;19.122;2023-03-23T15:30:37;98007.27;;;17.95;44.24
66801;BME280;53703;50.326;19.122;2023-03-23T15:33:39;98002.15;;;18.00;43.82
66801;BME280;53703;50.326;19.122;2023-03-23T15:36:36;97993.42;;;18.01;43.79
66801;BME280;53703;50.326;19.122;2023-03-23T15:39:29;97996.89;;;18.01;43.73